Time;durP1;ratioP1;P1;durP2;ratioP2;P2;SDS_P1;SDS_P2;PMS_P1;PMS_P2;Temp;Humidity;BMP_temperature;BMP_pressure;BME280_temperature;BME280_humidity;BME280_pressure;Samples;Min_cycle;Max_cycle;Signal;HPM_P1;HPM_P2
2022/10/30 00:00:09;;;;;;;;;;;20.30;73.60;;;;;;5092707;28;1282;-69
2022/10/30 00:02:34;;;;;;;;;;;20.30;73.60;;;;;;5094574;28;923;-68
2022/10/30 00:04:59;;;;;;;;;;;20.30;73.60;;;;;;5089506;28;899;-69
2022/10/30 00:07:25;;;;;;;;;;;20.30;73.60;;;;;;5090801;28;950;-68
2022/10/30 00:09:50;;;;;;;;;;;20.30;73.60;;;;;;5090950;28;2000;-69
2022/10/30 00:12:16;;;;;;;;;;;20.30;73.60;;;;;;5092028;28;903;-68
2022/10/30 00:14:41;;;;;;;;;;;20.30;73.60;;;;;;5092378;28;1258;-68
2022/10/30 00:17:07;;;;;;;;;;;20.30;73.60;;;;;;5091386;28;895;-68
2022/10/30 00:19:32;;;;;;;;;;;20.30;73.60;;;;;;5074456;28;1253;-68
2022/10/30 00:21:57;;;;;;;;;;;20.30;73.60;;;;;;5090681;28;1662;-68
2022/10/30 00:24:23;;;;;;;;;;;20.30;73.60;;;;;;5091018;28;879;-69
2022/10/30 00:26:48;;;;;;;;;;;20.30;73.60;;;;;;5075794;28;896;-68
2022/10/30 00:29:14;;;;;;;;;;;20.30;73.60;;;;;;5090431;28;1902;-68
2022/10/30 00:31:39;;;;;;;;;;;20.30;73.60;;;;;;5089633;28;1441;-68
2022/10/30 00:34:05;;;;;;;;;;;20.30;73.60;;;;;;5092868;28;1084;-68
2022/10/30 00:36:30;;;;;;;;;;;20.30;73.60;;;;;;5074350;28;815;-68
2022/10/30 00:38:56;;;;;;;;;;;20.30;73.60;;;;;;5092971;28;1377;-68
2022/10/30 00:41:21;;;;;;;;;;;20.30;73.60;;;;;;5096591;28;1001;-68
2022/10/30 00:43:47;;;;;;;;;;;20.30;73.60;;;;;;5078820;28;807;-68
2022/10/30 00:46:31;;;;;;;;;;;20.30;73.60;;;;;;5078030;28;836;-68
2022/10/30 00:48:57;;;;;;;;;;;20.30;73.60;;;;;;5094130;28;1959;-68
2022/10/30 00:51:22;;;;;;;;;;;20.30;73.60;;;;;;5095357;28;850;-67
2022/10/30 00:53:48;;;;;;;;;;;20.30;73.60;;;;;;5075224;28;1229;-69
2022/10/30 00:56:13;;;;;;;;;;;20.30;73.60;;;;;;5077547;28;840;-68
2022/10/30 00:58:40;;;;;;;;;;;20.30;73.60;;;;;;5076303;28;1460;-68
2022/10/30 01:01:06;;;;;;;;;;;20.30;73.60;;;;;;5075468;28;1283;-68
2022/10/30 01:03:32;;;;;;;;;;;20.30;73.60;;;;;;5074722;28;1308;-68
2022/10/30 01:05:58;;;;;;;;;;;20.30;73.60;;;;;;5094318;28;1222;-68
2022/10/30 01:08:24;;;;;;;;;;;20.30;73.60;;;;;;5077976;28;1898;-69
2022/10/30 01:10:49;;;;;;;;;;;20.30;73.60;;;;;;5091670;28;1284;-68
2022/10/30 01:13:15;;;;;;;;;;;20.20;73.60;;;;;;5093753;28;1251;-67
2022/10/30 01:15:44;;;;;;;;;;;20.30;73.70;;;;;;5076216;28;1383;-68
2022/10/30 01:18:28;;;;;;;;;;;20.30;73.70;;;;;;5074161;28;1353;-68
2022/10/30 01:21:08;;;;;;;;;;;20.30;73.70;;;;;;5086913;28;1407;-69
2022/10/30 01:23:46;;;;;;;;;;;20.30;73.70;;;;;;5078165;28;1294;-68
2022/10/30 01:26:26;;;;;;;;;;;20.30;73.70;;;;;;5093197;28;1484;-67
2022/10/30 01:28:52;;;;;;;;;;;20.30;73.70;;;;;;5095952;28;1903;-68
2022/10/30 01:31:23;;;;;;;;;;;20.30;73.60;;;;;;5091997;28;1334;-68
2022/10/30 01:33:58;;;;;;;;;;;20.30;73.70;;;;;;5076982;28;899;-68
2022/10/30 01:36:32;;;;;;;;;;;20.30;73.70;;;;;;5076654;28;1105;-68
2022/10/30 01:39:27;;;;;;;;;;;20.30;73.70;;;;;;5076349;28;1290;-68
2022/10/30 01:41:52;;;;;;;;;;;20.30;73.70;;;;;;5081496;28;1285;-67
2022/10/30 01:44:23;;;;;;;;;;;20.30;73.70;;;;;;5092432;28;912;-69
2022/10/30 01:46:48;;;;;;;;;;;20.20;73.60;;;;;;5078768;28;805;-68
2022/10/30 01:49:28;;;;;;;;;;;20.30;73.70;;;;;;5092626;28;1894;-68
2022/10/30 01:52:13;;;;;;;;;;;20.30;73.70;;;;;;5072392;28;1117;-69
2022/10/30 01:54:51;;;;;;;;;;;20.30;73.70;;;;;;5067400;28;907;-67
2022/10/30 01:57:35;;;;;;;;;;;20.30;73.70;;;;;;5093428;28;839;-68
2022/10/30 02:00:08;;;;;;;;;;;20.30;73.70;;;;;;5080575;28;1690;-68
2022/10/30 02:02:33;;;;;;;;;;;20.30;73.70;;;;;;5075492;28;890;-69
2022/10/30 02:04:59;;;;;;;;;;;20.30;73.70;;;;;;5092155;28;919;-69
2022/10/30 02:07:24;;;;;;;;;;;20.30;73.70;;;;;;5075412;28;836;-69
2022/10/30 02:09:50;;;;;;;;;;;20.30;73.70;;;;;;5093346;28;1918;-69
2022/10/30 02:12:16;;;;;;;;;;;20.30;73.70;;;;;;5094012;28;819;-69
2022/10/30 02:14:42;;;;;;;;;;;20.30;73.70;;;;;;5075738;28;800;-69
2022/10/30 02:17:08;;;;;;;;;;;20.30;73.70;;;;;;5093866;28;1093;-69
2022/10/30 02:19:33;;;;;;;;;;;20.30;73.70;;;;;;5092669;28;1214;-69
2022/10/30 02:21:59;;;;;;;;;;;20.30;73.70;;;;;;5093721;28;943;-69
2022/10/30 02:24:24;;;;;;;;;;;20.30;73.70;;;;;;5092627;28;788;-68
2022/10/30 02:26:49;;;;;;;;;;;20.30;73.70;;;;;;5076567;28;854;-67
2022/10/30 02:29:19;;;;;;;;;;;20.30;73.70;;;;;;5100461;28;1905;-68
2022/10/30 02:31:45;;;;;;;;;;;20.20;73.60;;;;;;5092195;28;914;-67
2022/10/30 02:34:10;;;;;;;;;;;20.20;73.60;;;;;;5092560;28;879;-67
2022/10/30 02:36:36;;;;;;;;;;;20.30;73.70;;;;;;5093498;28;947;-67
2022/10/30 02:39:01;;;;;;;;;;;20.30;73.80;;;;;;5092017;28;1279;-67
2022/10/30 02:41:27;;;;;;;;;;;20.30;73.70;;;;;;5075801;28;1022;-67
2022/10/30 02:43:52;;;;;;;;;;;20.30;73.70;;;;;;5092370;28;1808;-67
2022/10/30 02:46:18;;;;;;;;;;;20.30;73.70;;;;;;5092331;28;1058;-68
2022/10/30 02:48:43;;;;;;;;;;;20.30;73.70;;;;;;5092386;28;1902;-68
2022/10/30 02:51:09;;;;;;;;;;;20.20;73.60;;;;;;5093713;28;1010;-68
2022/10/30 02:53:34;;;;;;;;;;;20.20;73.60;;;;;;5094511;28;863;-68
2022/10/30 02:56:03;;;;;;;;;;;20.20;73.70;;;;;;5092821;28;873;-69
2022/10/30 02:58:29;;;;;;;;;;;20.30;73.70;;;;;;5091696;28;1276;-68
2022/10/30 03:00:54;;;;;;;;;;;20.20;73.70;;;;;;5091543;28;1100;-68
2022/10/30 03:03:19;;;;;;;;;;;20.30;73.70;;;;;;5099274;28;1061;-68
2022/10/30 03:05:45;;;;;;;;;;;20.30;73.70;;;;;;5092867;28;1022;-68
2022/10/30 03:08:10;;;;;;;;;;;20.20;73.70;;;;;;5093721;28;1917;-68
2022/10/30 03:10:36;;;;;;;;;;;20.30;73.80;;;;;;5095868;28;1417;-67
2022/10/30 03:13:02;;;;;;;;;;;20.30;73.70;;;;;;5093438;28;1092;-67
2022/10/30 03:15:27;;;;;;;;;;;20.30;73.70;;;;;;5093864;28;883;-67
2022/10/30 03:17:52;;;;;;;;;;;20.30;73.70;;;;;;5094342;28;812;-67
2022/10/30 03:20:18;;;;;;;;;;;20.20;73.70;;;;;;5092073;28;1405;-68
2022/10/30 03:22:43;;;;;;;;;;;20.20;73.70;;;;;;5093203;28;1013;-67
2022/10/30 03:25:09;;;;;;;;;;;20.20;73.70;;;;;;5091057;28;1006;-68
2022/10/30 03:27:34;;;;;;;;;;;20.30;73.70;;;;;;5092424;28;1010;-68
2022/10/30 03:30:00;;;;;;;;;;;20.30;73.70;;;;;;5070432;28;1282;-68
2022/10/30 03:32:25;;;;;;;;;;;20.30;73.70;;;;;;5090133;28;1363;-67
2022/10/30 03:34:50;;;;;;;;;;;20.30;73.70;;;;;;5090411;28;888;-68
2022/10/30 03:37:16;;;;;;;;;;;20.30;73.80;;;;;;5091401;28;800;-68
2022/10/30 03:39:41;;;;;;;;;;;20.30;74.00;;;;;;5091831;28;1272;-67
2022/10/30 03:42:07;;;;;;;;;;;20.30;73.80;;;;;;5092216;28;896;-68
2022/10/30 03:44:32;;;;;;;;;;;20.20;73.70;;;;;;5090579;28;887;-69
2022/10/30 03:46:58;;;;;;;;;;;20.20;73.70;;;;;;5091319;28;880;-68
2022/10/30 03:49:23;;;;;;;;;;;20.30;73.70;;;;;;5091706;28;1958;-69
2022/10/30 03:51:48;;;;;;;;;;;20.30;73.80;;;;;;5092769;28;895;-69
2022/10/30 03:54:14;;;;;;;;;;;20.20;73.70;;;;;;5072936;28;958;-69
2022/10/30 03:56:39;;;;;;;;;;;20.20;73.70;;;;;;5092291;28;919;-69
2022/10/30 03:59:05;;;;;;;;;;;20.30;73.80;;;;;;5093376;28;1288;-69
2022/10/30 04:01:30;;;;;;;;;;;20.20;73.70;;;;;;5090864;28;1006;-68
2022/10/30 04:03:56;;;;;;;;;;;20.30;73.70;;;;;;5093031;28;1452;-69
2022/10/30 04:06:21;;;;;;;;;;;20.30;73.80;;;;;;5093913;28;1303;-68
2022/10/30 04:08:46;;;;;;;;;;;20.20;73.70;;;;;;5092692;28;1910;-67
2022/10/30 04:11:12;;;;;;;;;;;20.30;73.80;;;;;;5092331;28;1090;-68
2022/10/30 04:13:37;;;;;;;;;;;20.20;73.70;;;;;;5088700;28;1006;-67
2022/10/30 04:16:03;;;;;;;;;;;20.20;73.70;;;;;;5091294;28;1132;-67
2022/10/30 04:18:29;;;;;;;;;;;20.30;73.80;;;;;;5091222;28;1328;-68
2022/10/30 04:20:54;;;;;;;;;;;20.30;73.80;;;;;;5090667;28;764;-68
2022/10/30 04:23:20;;;;;;;;;;;20.20;73.70;;;;;;5071800;28;926;-68
2022/10/30 04:25:45;;;;;;;;;;;20.20;73.80;;;;;;5089649;28;878;-67
2022/10/30 04:28:11;;;;;;;;;;;20.30;73.80;;;;;;5091612;28;1894;-68
2022/10/30 04:30:37;;;;;;;;;;;20.20;73.70;;;;;;5090148;28;1371;-69
2022/10/30 04:33:03;;;;;;;;;;;20.30;73.80;;;;;;5073520;28;1368;-68
2022/10/30 04:35:30;;;;;;;;;;;20.30;73.80;;;;;;5089414;28;914;-68
2022/10/30 04:37:59;;;;;;;;;;;20.20;73.70;;;;;;5091380;28;853;-68
2022/10/30 04:40:25;;;;;;;;;;;20.20;73.70;;;;;;5091922;28;1294;-68
2022/10/30 04:42:51;;;;;;;;;;;20.30;73.80;;;;;;5093440;28;903;-68
2022/10/30 04:45:16;;;;;;;;;;;20.20;73.70;;;;;;5091515;28;816;-67
2022/10/30 04:47:42;;;;;;;;;;;20.30;73.80;;;;;;5071981;28;1987;-69
2022/10/30 04:50:07;;;;;;;;;;;20.30;73.80;;;;;;5065510;28;1685;-70
2022/10/30 04:52:33;;;;;;;;;;;20.20;73.70;;;;;;5068535;28;2141;-71
2022/10/30 04:54:59;;;;;;;;;;;20.30;73.80;;;;;;5070792;28;1526;-70
2022/10/30 04:57:24;;;;;;;;;;;20.30;73.80;;;;;;5089515;28;1379;-68
2022/10/30 04:59:50;;;;;;;;;;;20.20;73.80;;;;;;5087669;28;1274;-68
2022/10/30 05:02:18;;;;;;;;;;;20.20;73.80;;;;;;5070391;28;939;-69
2022/10/30 05:04:43;;;;;;;;;;;20.30;73.80;;;;;;5087710;28;891;-68
2022/10/30 05:07:09;;;;;;;;;;;20.20;73.80;;;;;;5087729;28;903;-68
2022/10/30 05:09:34;;;;;;;;;;;20.30;73.80;;;;;;5081781;28;1984;-68
2022/10/30 05:12:00;;;;;;;;;;;20.30;73.80;;;;;;5090629;28;879;-68
2022/10/30 05:14:27;;;;;;;;;;;20.20;73.70;;;;;;5088325;28;901;-67
2022/10/30 05:16:53;;;;;;;;;;;20.30;73.70;;;;;;5089327;28;876;-68
2022/10/30 05:19:19;;;;;;;;;;;20.30;73.60;;;;;;5089204;28;1242;-68
2022/10/30 05:21:44;;;;;;;;;;;20.30;73.50;;;;;;5088365;28;891;-67
2022/10/30 05:24:09;;;;;;;;;;;20.40;73.50;;;;;;5090217;28;1046;-69
2022/10/30 05:26:35;;;;;;;;;;;20.40;73.40;;;;;;5092337;28;1013;-70
2022/10/30 05:29:00;;;;;;;;;;;20.40;73.30;;;;;;5089756;28;2056;-69
2022/10/30 05:31:26;;;;;;;;;;;20.40;73.30;;;;;;5092024;28;1945;-68
2022/10/30 05:33:51;;;;;;;;;;;20.40;73.10;;;;;;5063528;28;4724;-67
2022/10/30 05:36:17;;;;;;;;;;;20.40;73.10;;;;;;5083060;28;4381;-68
2022/10/30 05:38:42;;;;;;;;;;;20.40;73.00;;;;;;5092443;28;1329;-66
2022/10/30 05:41:07;;;;;;;;;;;20.50;72.90;;;;;;5092725;28;1014;-68
2022/10/30 05:43:33;;;;;;;;;;;20.50;72.90;;;;;;5092745;28;848;-68
2022/10/30 05:45:58;;;;;;;;;;;20.50;72.80;;;;;;5091286;28;859;-68
2022/10/30 05:48:24;;;;;;;;;;;20.50;72.70;;;;;;5091678;28;1967;-71
2022/10/30 05:50:49;;;;;;;;;;;20.50;72.60;;;;;;5093720;28;798;-71
2022/10/30 05:53:15;;;;;;;;;;;20.50;72.60;;;;;;5092216;28;876;-69
2022/10/30 05:55:40;;;;;;;;;;;20.60;72.60;;;;;;5090847;28;1134;-71
2022/10/30 05:58:05;;;;;;;;;;;20.60;72.50;;;;;;5090213;28;1301;-69
2022/10/30 06:00:32;;;;;;;;;;;20.60;72.50;;;;;;5092246;28;935;-71
2022/10/30 06:02:59;;;;;;;;;;;20.60;72.40;;;;;;5092070;28;852;-71
2022/10/30 06:05:24;;;;;;;;;;;20.60;72.30;;;;;;5076052;28;1290;-71
2022/10/30 06:07:53;;;;;;;;;;;20.60;72.20;;;;;;5093974;28;2098;-72
2022/10/30 06:10:18;;;;;;;;;;;20.60;72.20;;;;;;5092294;28;1338;-71
2022/10/30 06:12:50;;;;;;;;;;;20.70;72.30;;;;;;5092857;28;899;-71
2022/10/30 06:15:16;;;;;;;;;;;20.70;72.20;;;;;;5091770;28;816;-66
2022/10/30 06:17:41;;;;;;;;;;;20.70;72.10;;;;;;5091503;28;858;-66
2022/10/30 06:20:07;;;;;;;;;;;20.70;72.10;;;;;;5090828;28;1260;-65
2022/10/30 06:22:32;;;;;;;;;;;20.70;72.00;;;;;;5090783;28;2171;-66
2022/10/30 06:24:57;;;;;;;;;;;20.70;72.00;;;;;;5089804;28;1222;-65
2022/10/30 06:27:23;;;;;;;;;;;20.70;72.00;;;;;;5092266;28;1385;-67
2022/10/30 06:29:49;;;;;;;;;;;20.70;72.00;;;;;;5092816;28;1976;-66
2022/10/30 06:32:15;;;;;;;;;;;20.70;72.00;;;;;;5092221;28;1444;-68
2022/10/30 06:34:41;;;;;;;;;;;20.70;72.00;;;;;;5074352;28;923;-68
2022/10/30 06:37:07;;;;;;;;;;;20.70;71.90;;;;;;5092824;28;907;-67
2022/10/30 06:39:32;;;;;;;;;;;20.70;72.00;;;;;;5093476;28;1731;-68
2022/10/30 06:41:57;;;;;;;;;;;20.70;72.00;;;;;;5092973;28;980;-68
2022/10/30 06:44:23;;;;;;;;;;;20.70;72.00;;;;;;5091069;28;803;-68
2022/10/30 06:46:51;;;;;;;;;;;20.70;72.00;;;;;;5094847;28;856;-68
2022/10/30 06:49:16;;;;;;;;;;;20.70;72.00;;;;;;5094142;28;1967;-68
2022/10/30 06:51:42;;;;;;;;;;;20.70;72.00;;;;;;5094765;28;1002;-68
2022/10/30 06:54:07;;;;;;;;;;;20.70;72.10;;;;;;5095986;28;878;-68
2022/10/30 06:56:32;;;;;;;;;;;20.80;72.30;;;;;;5092314;28;910;-67
2022/10/30 06:58:58;;;;;;;;;;;20.80;72.50;;;;;;5091507;28;1260;-68
2022/10/30 07:01:23;;;;;;;;;;;20.80;72.30;;;;;;5097214;28;943;-66
2022/10/30 07:03:49;;;;;;;;;;;20.80;72.10;;;;;;5073498;28;840;-68
2022/10/30 07:06:14;;;;;;;;;;;20.80;72.10;;;;;;5091699;28;966;-68
2022/10/30 07:08:40;;;;;;;;;;;20.80;72.00;;;;;;5090656;28;1902;-68
2022/10/30 07:11:05;;;;;;;;;;;20.80;72.00;;;;;;5092618;28;774;-70
2022/10/30 07:13:30;;;;;;;;;;;20.80;72.00;;;;;;5092905;28;847;-69
2022/10/30 07:15:57;;;;;;;;;;;20.80;72.00;;;;;;5092684;28;792;-69
2022/10/30 07:18:22;;;;;;;;;;;20.80;72.00;;;;;;5074756;28;1341;-68
2022/10/30 07:20:52;;;;;;;;;;;20.80;72.00;;;;;;5092802;28;841;-68
2022/10/30 07:23:17;;;;;;;;;;;20.80;72.00;;;;;;5092429;28;1100;-68
2022/10/30 07:25:43;;;;;;;;;;;20.80;72.00;;;;;;5093564;28;1045;-69
2022/10/30 07:28:08;;;;;;;;;;;20.80;72.00;;;;;;5091520;28;1961;-68
2022/10/30 07:30:33;;;;;;;;;;;20.80;72.00;;;;;;5090647;28;1283;-66
2022/10/30 07:33:00;;;;;;;;;;;20.80;72.00;;;;;;5089269;28;1350;-70
2022/10/30 07:35:25;;;;;;;;;;;20.80;72.00;;;;;;5073573;28;909;-68
2022/10/30 07:37:50;;;;;;;;;;;20.80;72.00;;;;;;5091526;28;856;-67
2022/10/30 07:40:16;;;;;;;;;;;20.80;72.00;;;;;;5090755;28;1334;-68
2022/10/30 07:42:41;;;;;;;;;;;20.80;72.00;;;;;;5091567;28;877;-68
2022/10/30 07:45:07;;;;;;;;;;;20.80;72.00;;;;;;5089810;28;865;-68
2022/10/30 07:47:37;;;;;;;;;;;20.80;72.00;;;;;;5091093;28;900;-67
2022/10/30 07:50:02;;;;;;;;;;;20.80;72.00;;;;;;5091906;28;1973;-68
2022/10/30 07:52:30;;;;;;;;;;;20.80;72.00;;;;;;5091522;28;1022;-67
2022/10/30 07:54:55;;;;;;;;;;;20.80;72.00;;;;;;5091598;28;1057;-68
2022/10/30 07:57:21;;;;;;;;;;;20.80;72.00;;;;;;5090921;28;798;-68
2022/10/30 07:59:46;;;;;;;;;;;20.80;72.00;;;;;;5075307;28;1233;-68
2022/10/30 08:02:11;;;;;;;;;;;20.80;72.00;;;;;;5091010;28;2123;-68
2022/10/30 08:04:37;;;;;;;;;;;20.80;71.90;;;;;;5090534;28;905;-68
2022/10/30 08:07:02;;;;;;;;;;;20.80;71.90;;;;;;5090809;28;1615;-69
2022/10/30 08:09:28;;;;;;;;;;;20.80;71.80;;;;;;5091594;28;1910;-67
2022/10/30 08:11:53;;;;;;;;;;;20.80;71.90;;;;;;5091513;28;842;-69
2022/10/30 08:14:19;;;;;;;;;;;20.80;71.80;;;;;;5090734;28;1291;-68
2022/10/30 08:16:45;;;;;;;;;;;20.80;71.80;;;;;;5090759;28;1224;-68
2022/10/30 08:19:10;;;;;;;;;;;20.80;71.90;;;;;;5090504;28;1382;-68
2022/10/30 08:21:36;;;;;;;;;;;20.80;72.60;;;;;;5090949;28;1086;-68
2022/10/30 08:24:01;;;;;;;;;;;20.80;71.90;;;;;;5090086;28;960;-68
2022/10/30 08:26:26;;;;;;;;;;;20.80;71.90;;;;;;5092772;28;816;-69
2022/10/30 08:28:52;;;;;;;;;;;20.80;71.90;;;;;;5090491;28;1897;-69
2022/10/30 08:31:17;;;;;;;;;;;20.80;72.00;;;;;;5090620;28;1042;-69
2022/10/30 08:33:43;;;;;;;;;;;20.80;71.90;;;;;;5091161;28;1200;-67
2022/10/30 08:36:08;;;;;;;;;;;20.80;71.90;;;;;;5096120;28;803;-69
2022/10/30 08:38:34;;;;;;;;;;;20.80;72.00;;;;;;5091277;28;1223;-69
2022/10/30 08:41:00;;;;;;;;;;;20.80;72.00;;;;;;5092036;28;993;-69
2022/10/30 08:43:25;;;;;;;;;;;20.80;72.00;;;;;;5091777;28;1399;-68
2022/10/30 08:45:51;;;;;;;;;;;20.80;71.90;;;;;;5089588;28;804;-67
2022/10/30 08:48:16;;;;;;;;;;;20.80;71.90;;;;;;5093034;28;1905;-67
2022/10/30 08:50:41;;;;;;;;;;;20.80;71.90;;;;;;5092872;28;922;-67
2022/10/30 08:53:10;;;;;;;;;;;20.80;71.80;;;;;;5072649;28;1019;-68
2022/10/30 08:55:35;;;;;;;;;;;20.80;71.80;;;;;;5071453;28;1073;-67
2022/10/30 08:58:00;;;;;;;;;;;20.80;71.80;;;;;;5090544;28;1014;-68
2022/10/30 09:00:26;;;;;;;;;;;20.80;71.80;;;;;;5094007;28;1235;-68
2022/10/30 09:02:52;;;;;;;;;;;20.80;71.80;;;;;;5077049;28;1126;-68
2022/10/30 09:05:17;;;;;;;;;;;20.80;71.80;;;;;;5074163;28;825;-68
2022/10/30 09:07:43;;;;;;;;;;;20.80;71.80;;;;;;5076292;28;911;-68
2022/10/30 09:10:08;;;;;;;;;;;20.80;71.80;;;;;;5075665;28;1890;-68
2022/10/30 09:12:33;;;;;;;;;;;20.80;71.80;;;;;;5095655;28;825;-68
2022/10/30 09:14:59;;;;;;;;;;;20.80;71.80;;;;;;5078471;28;846;-68
2022/10/30 09:17:24;;;;;;;;;;;20.80;71.80;;;;;;5093800;28;897;-68
2022/10/30 09:19:50;;;;;;;;;;;20.80;71.90;;;;;;5094243;28;1306;-69
2022/10/30 09:22:15;;;;;;;;;;;20.80;71.80;;;;;;5096555;28;1018;-68
2022/10/30 09:24:41;;;;;;;;;;;20.80;71.90;;;;;;5094370;28;796;-69
2022/10/30 09:27:06;;;;;;;;;;;20.80;71.90;;;;;;5093164;28;1019;-69
2022/10/30 09:29:32;;;;;;;;;;;20.80;71.90;;;;;;5093959;28;2009;-69
2022/10/30 09:31:57;;;;;;;;;;;20.80;72.00;;;;;;5077485;28;1351;-68
2022/10/30 09:34:23;;;;;;;;;;;20.80;71.90;;;;;;5094644;28;1352;-69
2022/10/30 09:36:48;;;;;;;;;;;20.80;72.00;;;;;;5094407;28;1315;-68
2022/10/30 09:39:14;;;;;;;;;;;20.80;72.00;;;;;;5092505;28;1492;-70
2022/10/30 09:41:45;;;;;;;;;;;20.80;72.00;;;;;;5093272;28;1425;-68
2022/10/30 09:44:34;;;;;;;;;;;20.80;72.00;;;;;;5091316;28;1491;-68
2022/10/30 09:47:19;;;;;;;;;;;20.80;72.00;;;;;;5066784;28;1652;-68
2022/10/30 09:49:53;;;;;;;;;;;20.80;72.00;;;;;;5088112;28;1996;-68
2022/10/30 09:52:28;;;;;;;;;;;20.80;72.00;;;;;;5072860;28;1260;-68
2022/10/30 09:55:01;;;;;;;;;;;20.80;72.10;;;;;;5073125;28;1341;-69
2022/10/30 09:57:32;;;;;;;;;;;20.80;72.10;;;;;;5077200;28;1429;-69
2022/10/30 10:00:01;;;;;;;;;;;20.80;72.10;;;;;;5073385;28;1327;-67
2022/10/30 10:02:36;;;;;;;;;;;20.80;72.10;;;;;;5092714;28;1277;-67
2022/10/30 10:05:24;;;;;;;;;;;20.80;72.10;;;;;;5090538;28;1421;-68
2022/10/30 10:07:54;;;;;;;;;;;20.70;72.10;;;;;;5056084;28;1489;-70
2022/10/30 10:10:24;;;;;;;;;;;20.70;72.10;;;;;;5072224;28;1564;-70
2022/10/30 10:12:50;;;;;;;;;;;20.70;72.10;;;;;;5058211;28;1354;-69
2022/10/30 10:15:20;;;;;;;;;;;20.70;72.20;;;;;;5074642;28;1312;-68
2022/10/30 10:17:46;;;;;;;;;;;20.70;72.20;;;;;;5091405;28;1462;-69
2022/10/30 10:20:13;;;;;;;;;;;20.70;72.20;;;;;;5091852;28;1314;-68
2022/10/30 10:22:58;;;;;;;;;;;20.70;72.20;;;;;;5070874;28;1323;-68
2022/10/30 10:25:24;;;;;;;;;;;20.70;72.20;;;;;;5073440;28;1022;-68
2022/10/30 10:27:58;;;;;;;;;;;20.70;72.20;;;;;;5074792;28;1379;-68
2022/10/30 10:30:24;;;;;;;;;;;20.70;72.30;;;;;;5096258;28;1458;-67
2022/10/30 10:32:50;;;;;;;;;;;20.70;72.30;;;;;;5076853;28;1483;-67
2022/10/30 10:35:36;;;;;;;;;;;20.70;72.30;;;;;;5073054;28;1030;-68
2022/10/30 10:38:20;;;;;;;;;;;20.70;72.30;;;;;;5073967;28;1014;-68
2022/10/30 10:40:53;;;;;;;;;;;20.70;72.40;;;;;;5092365;28;998;-68
2022/10/30 10:43:37;;;;;;;;;;;20.70;72.40;;;;;;5074053;28;970;-68
2022/10/30 10:46:08;;;;;;;;;;;20.70;72.40;;;;;;5092320;28;1002;-67
2022/10/30 10:48:36;;;;;;;;;;;20.70;72.40;;;;;;5093142;28;1957;-68
2022/10/30 10:51:08;;;;;;;;;;;20.70;72.40;;;;;;5091631;28;959;-67
2022/10/30 10:53:39;;;;;;;;;;;20.70;72.50;;;;;;5091950;28;994;-68
2022/10/30 10:56:05;;;;;;;;;;;20.70;72.40;;;;;;5077200;28;1985;-67
2022/10/30 10:58:32;;;;;;;;;;;20.60;72.40;;;;;;5073125;28;1994;-68
2022/10/30 11:00:57;;;;;;;;;;;20.60;72.40;;;;;;5074878;28;1441;-67
2022/10/30 11:03:35;;;;;;;;;;;20.70;72.50;;;;;;5083757;28;985;-67
2022/10/30 11:06:12;;;;;;;;;;;20.60;72.50;;;;;;5092018;28;1274;-67
2022/10/30 11:08:38;;;;;;;;;;;20.60;72.50;;;;;;5093658;28;1925;-68
2022/10/30 11:11:04;;;;;;;;;;;20.60;72.50;;;;;;5092815;28;894;-68
2022/10/30 11:13:30;;;;;;;;;;;20.60;72.50;;;;;;5074637;28;1338;-68
2022/10/30 11:16:00;;;;;;;;;;;20.60;72.50;;;;;;5091022;28;898;-67
2022/10/30 11:18:26;;;;;;;;;;;20.60;72.60;;;;;;5076443;28;1408;-68
2022/10/30 11:21:00;;;;;;;;;;;20.60;72.60;;;;;;5092600;28;855;-67
2022/10/30 11:23:32;;;;;;;;;;;20.60;72.60;;;;;;5090815;28;879;-67
2022/10/30 11:25:58;;;;;;;;;;;20.60;72.60;;;;;;5070240;28;2158;-67
2022/10/30 11:28:31;;;;;;;;;;;20.60;72.60;;;;;;5090015;28;2207;-67
2022/10/30 11:31:15;;;;;;;;;;;20.60;72.60;;;;;;5073266;28;1435;-68
2022/10/30 11:33:40;;;;;;;;;;;20.60;72.60;;;;;;5073195;28;1069;-67
2022/10/30 11:36:07;;;;;;;;;;;20.60;72.60;;;;;;5090858;28;1182;-67
2022/10/30 11:38:32;;;;;;;;;;;20.60;72.70;;;;;;5092129;28;1351;-67
2022/10/30 11:40:58;;;;;;;;;;;20.60;72.70;;;;;;5091161;28;867;-68
2022/10/30 11:43:24;;;;;;;;;;;20.60;72.70;;;;;;5072937;28;1437;-68
2022/10/30 11:45:49;;;;;;;;;;;20.60;72.70;;;;;;5068837;28;1414;-68
2022/10/30 11:48:20;;;;;;;;;;;20.60;72.70;;;;;;5072568;28;2353;-68
2022/10/30 11:50:46;;;;;;;;;;;20.60;72.70;;;;;;5089773;28;1413;-68
2022/10/30 11:53:15;;;;;;;;;;;20.60;72.70;;;;;;5072119;28;1342;-68
2022/10/30 11:55:44;;;;;;;;;;;20.60;72.70;;;;;;5069204;28;1489;-68
2022/10/30 11:58:16;;;;;;;;;;;20.60;72.70;;;;;;5072373;28;1306;-69
2022/10/30 12:00:44;;;;;;;;;;;20.60;72.70;;;;;;5072417;28;1384;-67
2022/10/30 12:03:25;;;;;;;;;;;20.60;72.80;;;;;;5073961;28;1440;-67
2022/10/30 12:05:50;;;;;;;;;;;20.60;72.80;;;;;;5079791;28;1344;-67
2022/10/30 12:08:16;;;;;;;;;;;20.60;72.80;;;;;;5088075;28;1959;-67
2022/10/30 12:10:45;;;;;;;;;;;20.60;72.80;;;;;;5090562;28;917;-68
2022/10/30 12:13:12;;;;;;;;;;;20.60;72.90;;;;;;5091148;28;824;-67
2022/10/30 12:15:38;;;;;;;;;;;20.60;72.80;;;;;;5071574;28;1076;-67
2022/10/30 12:18:07;;;;;;;;;;;20.60;72.80;;;;;;5091179;28;1013;-67
2022/10/30 12:20:35;;;;;;;;;;;20.60;72.90;;;;;;5071599;28;878;-68
2022/10/30 12:23:10;;;;;;;;;;;20.50;72.80;;;;;;5073012;28;1084;-68
2022/10/30 12:25:35;;;;;;;;;;;20.60;72.90;;;;;;5073105;28;871;-67
2022/10/30 12:28:11;;;;;;;;;;;20.50;72.80;;;;;;5075188;28;1893;-67
2022/10/30 12:30:38;;;;;;;;;;;20.60;72.90;;;;;;5094298;28;1407;-67
2022/10/30 12:33:16;;;;;;;;;;;20.60;72.90;;;;;;5096713;28;1431;-67
2022/10/30 12:35:49;;;;;;;;;;;20.50;72.90;;;;;;5072693;28;1003;-67
2022/10/30 12:38:18;;;;;;;;;;;20.50;73.00;;;;;;5073271;28;1348;-67
2022/10/30 12:40:53;;;;;;;;;;;20.50;72.90;;;;;;5091542;28;865;-67
2022/10/30 12:43:21;;;;;;;;;;;20.50;72.90;;;;;;5052560;28;832;-67
2022/10/30 12:45:47;;;;;;;;;;;20.50;72.90;;;;;;5071928;28;1250;-66
2022/10/30 12:48:15;;;;;;;;;;;20.50;72.90;;;;;;5072849;28;1897;-67
2022/10/30 12:50:43;;;;;;;;;;;20.50;72.90;;;;;;5091285;28;1234;-67
2022/10/30 12:53:20;;;;;;;;;;;20.50;72.90;;;;;;5090214;28;860;-67
2022/10/30 12:55:49;;;;;;;;;;;20.50;72.90;;;;;;5071338;28;807;-69
2022/10/30 12:58:34;;;;;;;;;;;20.50;72.90;;;;;;5073445;28;1272;-67
2022/10/30 13:01:05;;;;;;;;;;;20.50;72.90;;;;;;5090428;28;923;-67
2022/10/30 13:03:49;;;;;;;;;;;20.50;73.00;;;;;;5089599;28;1458;-67
2022/10/30 13:06:18;;;;;;;;;;;20.50;72.90;;;;;;5087996;28;1215;-67
2022/10/30 13:09:02;;;;;;;;;;;20.50;73.00;;;;;;5070205;28;1991;-69
2022/10/30 13:11:34;;;;;;;;;;;20.50;73.00;;;;;;5066090;28;1401;-68
2022/10/30 13:14:00;;;;;;;;;;;20.50;73.00;;;;;;5071403;28;1282;-68
2022/10/30 13:16:29;;;;;;;;;;;20.50;73.00;;;;;;5069762;28;2181;-69
2022/10/30 13:18:55;;;;;;;;;;;20.50;73.00;;;;;;5071677;28;2184;-68
2022/10/30 13:21:22;;;;;;;;;;;20.50;73.00;;;;;;5069394;28;2285;-68
2022/10/30 13:23:51;;;;;;;;;;;20.50;73.00;;;;;;5067826;28;1334;-67
2022/10/30 13:26:31;;;;;;;;;;;20.50;72.90;;;;;;5088674;28;1323;-67
2022/10/30 13:29:09;;;;;;;;;;;20.50;73.00;;;;;;5088612;28;1951;-67
2022/10/30 13:31:34;;;;;;;;;;;20.50;73.10;;;;;;5090150;28;1046;-68
2022/10/30 13:34:05;;;;;;;;;;;20.60;72.90;;;;;;5094386;28;852;-69
2022/10/30 13:36:43;;;;;;;;;;;20.60;72.60;;;;;;5073040;28;883;-68
2022/10/30 13:39:15;;;;;;;;;;;20.60;72.00;;;;;;5069485;28;1263;-68
2022/10/30 13:41:45;;;;;;;;;;;20.60;71.40;;;;;;5073451;28;1240;-68
2022/10/30 13:44:14;;;;;;;;;;;20.60;71.10;;;;;;5072351;28;970;-68
2022/10/30 13:46:42;;;;;;;;;;;20.60;71.00;;;;;;5093881;28;808;-68
2022/10/30 13:49:10;;;;;;;;;;;20.60;71.10;;;;;;5092900;28;1905;-68
2022/10/30 13:51:37;;;;;;;;;;;20.60;71.00;;;;;;5073916;28;2046;-69
2022/10/30 13:54:05;;;;;;;;;;;20.60;70.70;;;;;;5091268;28;1330;-69
2022/10/30 13:56:30;;;;;;;;;;;20.70;70.30;;;;;;5091551;28;1830;-69
2022/10/30 13:59:03;;;;;;;;;;;20.70;69.40;;;;;;5076842;28;1373;-69
2022/10/30 14:01:37;;;;;;;;;;;20.70;70.10;;;;;;5075988;28;954;-69
2022/10/30 14:04:06;;;;;;;;;;;20.70;70.40;;;;;;5074953;28;911;-69
2022/10/30 14:06:51;;;;;;;;;;;20.70;70.30;;;;;;5094052;28;831;-69
2022/10/30 14:09:52;;;;;;;;;;;20.70;70.50;;;;;;5092650;28;1941;-68
2022/10/30 14:12:36;;;;;;;;;;;20.70;70.50;;;;;;4991215;28;1327;-67
2022/10/30 14:15:03;;;;;;;;;;;20.70;70.50;;;;;;5084421;28;1068;-67
2022/10/30 14:17:28;;;;;;;;;;;20.70;70.70;;;;;;5063201;28;1070;-68
2022/10/30 14:20:03;;;;;;;;;;;20.60;70.50;;;;;;5060823;28;1519;-67
2022/10/30 14:22:29;;;;;;;;;;;20.70;70.30;;;;;;5082036;28;2573;-68
2022/10/30 14:24:54;;;;;;;;;;;20.70;70.50;;;;;;5087732;28;2288;-68
2022/10/30 14:27:20;;;;;;;;;;;20.70;70.50;;;;;;5068893;28;1372;-67
2022/10/30 14:29:46;;;;;;;;;;;20.60;70.70;;;;;;5072795;28;1914;-68
2022/10/30 14:32:16;;;;;;;;;;;20.60;70.80;;;;;;5093231;28;1507;-68
2022/10/30 14:34:42;;;;;;;;;;;20.60;70.90;;;;;;5090029;28;815;-68
2022/10/30 14:37:17;;;;;;;;;;;20.60;71.00;;;;;;5064711;28;1104;-68